Time;durP1;ratioP1;P1;durP2;ratioP2;P2;SDS_P1;SDS_P2;PMS_P1;PMS_P2;Temp;Humidity;BMP_temperature;BMP_pressure;BME280_temperature;BME280_humidity;BME280_pressure;Samples;Min_cycle;Max_cycle;Signal;HPM_P1;HPM_P2
2021/03/02 00:01:17;;;;;;;16.20;9.90;;;;;;;6.52;53.42;97899.84;5079398;28;20429;-66
2021/03/02 00:03:44;;;;;;;16.37;9.70;;;;;;;6.54;53.60;97908.38;5084122;28;20805;-65
2021/03/02 00:06:10;;;;;;;16.30;9.70;;;;;;;6.61;53.28;97903.56;5080467;28;20206;-65
2021/03/02 00:08:37;;;;;;;15.80;9.17;;;;;;;6.59;53.47;97903.66;5078183;28;20429;-64
2021/03/02 00:11:03;;;;;;;13.60;9.20;;;;;;;6.62;53.61;97907.81;5072139;28;20240;-66
2021/03/02 00:13:30;;;;;;;16.30;10.20;;;;;;;6.67;53.23;97904.88;5068561;28;20428;-64
2021/03/02 00:15:59;;;;;;;17.03;10.27;;;;;;;6.64;53.15;97900.72;5074999;28;20441;-66
2021/03/02 00:18:27;;;;;;;18.43;10.50;;;;;;;6.63;53.33;97909.47;5075676;28;20440;-65
2021/03/02 00:21:01;;;;;;;16.47;9.83;;;;;;;6.55;53.40;97910.00;5054428;28;20417;-65
2021/03/02 00:23:35;;;;;;;15.73;9.97;;;;;;;6.58;53.29;97911.59;5071507;28;20421;-62
2021/03/02 00:26:02;;;;;;;16.40;10.03;;;;;;;6.48;53.20;97916.63;5070614;28;20444;-65
2021/03/02 00:28:27;;;;;;;14.00;8.70;;;;;;;6.48;53.18;97914.00;5068117;28;20804;-65
2021/03/02 00:30:54;;;;;;;21.83;10.07;;;;;;;6.50;53.00;97916.50;5062264;28;20548;-65
2021/03/02 00:33:23;;;;;;;15.47;10.10;;;;;;;6.48;53.22;97914.00;5065037;28;20213;-66
2021/03/02 00:35:49;;;;;;;14.27;9.43;;;;;;;6.48;53.09;97918.41;5071971;28;20440;-64
2021/03/02 00:38:15;;;;;;;20.73;10.57;;;;;;;6.26;53.77;97915.53;5073373;28;20949;-65
2021/03/02 00:40:41;;;;;;;15.83;9.80;;;;;;;6.27;54.25;97917.19;5071908;28;20515;-65
2021/03/02 00:43:06;;;;;;;15.73;10.07;;;;;;;6.07;54.42;97920.34;5063832;28;20504;-66
2021/03/02 00:45:32;;;;;;;14.43;9.37;;;;;;;6.02;54.70;97917.25;5072418;28;20665;-64
2021/03/02 00:47:58;;;;;;;15.10;9.60;;;;;;;5.94;54.88;97921.16;5072503;28;20680;-64
2021/03/02 00:50:24;;;;;;;15.30;9.13;;;;;;;5.84;55.35;97917.53;5072657;28;20206;-66
2021/03/02 00:52:51;;;;;;;18.00;9.47;;;;;;;5.84;55.82;97920.13;5072237;28;20213;-66
2021/03/02 00:55:17;;;;;;;25.10;10.20;;;;;;;5.87;55.91;97914.72;5073102;28;20519;-65
2021/03/02 00:57:42;;;;;;;14.10;8.60;;;;;;;5.98;55.29;97917.41;5071848;28;20448;-66
2021/03/02 01:00:09;;;;;;;15.40;9.77;;;;;;;5.95;55.56;97915.00;5063062;28;20418;-65
2021/03/02 01:02:35;;;;;;;13.00;8.60;;;;;;;5.99;55.49;97916.50;5066973;28;20194;-64
2021/03/02 01:05:01;;;;;;;18.20;9.60;;;;;;;6.09;55.10;97915.88;5071053;28;20439;-64
2021/03/02 01:07:26;;;;;;;15.37;8.63;;;;;;;5.99;55.40;97913.91;5052965;28;20460;-66
2021/03/02 01:09:52;;;;;;;15.60;8.50;;;;;;;6.02;55.18;97917.25;5071484;28;20194;-65
2021/03/02 01:12:18;;;;;;;13.70;8.93;;;;;;;6.07;55.17;97915.13;5072411;28;20210;-65
2021/03/02 01:14:43;;;;;;;17.40;9.90;;;;;;;6.14;55.27;97913.78;5071079;28;20217;-68
2021/03/02 01:17:09;;;;;;;16.03;9.27;;;;;;;6.10;55.20;97909.72;5055129;28;20212;-65
2021/03/02 01:19:34;;;;;;;13.50;8.30;;;;;;;6.05;55.77;97901.41;5052705;28;20802;-65
2021/03/02 01:22:00;;;;;;;14.50;8.17;;;;;;;6.00;55.43;97901.72;5070777;28;20205;-65
2021/03/02 01:24:26;;;;;;;13.60;8.63;;;;;;;5.93;55.58;97903.88;5066823;28;20209;-63
2021/03/02 01:26:51;;;;;;;17.97;10.10;;;;;;;5.99;55.60;97903.50;5071784;28;20285;-65
2021/03/02 01:29:17;;;;;;;17.10;9.57;;;;;;;5.99;56.18;97897.41;5066295;28;20236;-65
2021/03/02 01:31:43;;;;;;;13.83;8.50;;;;;;;5.84;56.13;97899.31;5071361;28;20198;-65
2021/03/02 01:34:09;;;;;;;14.63;8.83;;;;;;;5.50;57.76;97901.63;5071635;28;20499;-65
2021/03/02 01:36:34;;;;;;;12.97;8.07;;;;;;;5.52;57.66;97897.16;5070515;28;20210;-64
2021/03/02 01:39:00;;;;;;;12.43;9.13;;;;;;;5.64;57.81;97900.66;5069471;28;20194;-66
2021/03/02 01:41:26;;;;;;;17.13;9.50;;;;;;;5.81;56.98;97902.13;5065322;28;20183;-64
2021/03/02 01:43:51;;;;;;;18.30;9.10;;;;;;;5.94;56.68;97900.34;5068037;28;20784;-66
2021/03/02 01:46:17;;;;;;;11.97;7.90;;;;;;;5.98;55.96;97896.59;5064760;28;20686;-65
2021/03/02 01:48:43;;;;;;;13.90;8.63;;;;;;;5.96;56.06;97897.66;5071877;28;20753;-66
2021/03/02 01:51:10;;;;;;;13.60;9.20;;;;;;;5.80;56.30;97903.06;5053662;28;20206;-63
2021/03/02 01:53:35;;;;;;;12.63;8.07;;;;;;;5.74;56.58;97899.09;5071174;28;20424;-65
2021/03/02 01:56:02;;;;;;;15.20;8.63;;;;;;;5.80;56.83;97901.31;5070753;28;20502;-64
2021/03/02 01:58:28;;;;;;;12.00;8.50;;;;;;;5.83;56.34;97892.44;5049319;28;20274;-65
2021/03/02 02:01:01;;;;;;;12.07;7.50;;;;;;;5.86;56.37;97891.41;5068693;28;20859;-65
2021/03/02 02:03:34;;;;;;;16.27;9.10;;;;;;;5.77;56.02;97892.88;5061692;28;20489;-64
2021/03/02 02:06:09;;;;;;;16.40;9.60;;;;;;;5.65;56.68;97894.53;5069839;28;20444;-64
2021/03/02 02:08:47;;;;;;;13.90;8.67;;;;;;;5.73;56.48;97894.88;5071540;28;20788;-64
2021/03/02 02:11:29;;;;;;;14.20;8.77;;;;;;;5.78;56.06;97899.75;5069611;28;20460;-65
2021/03/02 02:14:01;;;;;;;13.43;8.70;;;;;;;5.71;56.57;97882.88;5068721;28;20455;-66
2021/03/02 02:16:28;;;;;;;13.70;8.17;;;;;;;5.62;56.79;97889.53;5070695;28;20493;-64
2021/03/02 02:18:55;;;;;;;16.50;9.67;;;;;;;5.48;57.29;97893.91;5071470;28;20425;-65
2021/03/02 02:21:26;;;;;;;15.43;8.47;;;;;;;5.22;57.74;97893.91;5070626;28;20775;-67
2021/03/02 02:24:11;;;;;;;20.23;8.87;;;;;;;5.34;57.54;97900.03;5064661;28;20921;-66
2021/03/02 02:26:58;;;;;;;16.07;8.93;;;;;;;5.48;57.18;97891.31;5075406;28;20447;-66
2021/03/02 02:29:31;;;;;;;12.33;8.33;;;;;;;5.30;57.69;97879.56;5061803;28;20511;-64
2021/03/02 02:31:59;;;;;;;14.00;8.40;;;;;;;5.25;58.14;97892.84;5056522;28;20456;-61
2021/03/02 02:34:25;;;;;;;11.63;7.93;;;;;;;5.28;57.98;97882.25;5073169;28;20428;-64
2021/03/02 02:36:52;;;;;;;17.30;8.23;;;;;;;5.37;57.65;97886.84;5074016;28;20852;-64
2021/03/02 02:39:18;;;;;;;11.87;7.70;;;;;;;5.44;57.88;97886.41;5075597;28;20424;-64
2021/03/02 02:41:47;;;;;;;14.27;8.93;;;;;;;5.45;57.40;97885.47;5074660;28;20424;-63
2021/03/02 02:44:13;;;;;;;14.47;8.50;;;;;;;5.26;58.42;97884.13;5074001;28;20436;-63
2021/03/02 02:46:39;;;;;;;16.50;8.50;;;;;;;5.36;57.91;97892.13;5075706;28;20459;-64
2021/03/02 02:49:05;;;;;;;13.77;8.43;;;;;;;5.45;57.50;97888.09;5085603;28;20429;-64
2021/03/02 02:51:32;;;;;;;12.33;8.50;;;;;;;5.49;57.09;97890.38;5087453;28;20468;-65
2021/03/02 02:53:58;;;;;;;14.83;8.10;;;;;;;5.29;57.98;97885.69;5074481;28;20516;-65
2021/03/02 02:56:23;;;;;;;13.07;8.07;;;;;;;5.38;57.92;97893.72;5073592;28;20501;-64
2021/03/02 02:59:19;;;;;;;12.10;7.60;;;;;;;5.42;57.45;97896.13;5068797;28;20475;-66
2021/03/02 03:01:48;;;;;;;12.43;7.70;;;;;;;5.28;57.45;97884.88;5074000;28;20256;-66
2021/03/02 03:04:20;;;;;;;14.70;8.27;;;;;;;5.26;57.99;97884.13;5073240;28;20436;-66
2021/03/02 03:06:46;;;;;;;11.17;7.10;;;;;;;5.29;57.47;97886.53;5073852;28;21162;-65
2021/03/02 03:09:12;;;;;;;13.90;8.17;;;;;;;5.30;57.77;97882.97;5068786;28;20486;-65
2021/03/02 03:11:43;;;;;;;16.87;8.70;;;;;;;5.28;57.59;97892.66;5064929;28;20446;-66
2021/03/02 03:14:11;;;;;;;13.27;7.80;;;;;;;5.19;57.62;97888.06;5056411;28;20423;-65
2021/03/02 03:16:39;;;;;;;14.80;8.33;;;;;;;5.12;58.66;97890.22;5056333;28;20474;-67
2021/03/02 03:19:05;;;;;;;14.10;8.13;;;;;;;5.13;59.00;97885.88;5070118;28;20916;-64
2021/03/02 03:21:32;;;;;;;11.63;7.90;;;;;;;5.15;58.61;97895.22;5067328;28;20478;-63
2021/03/02 03:23:58;;;;;;;13.80;7.87;;;;;;;5.18;58.37;97888.97;5067774;28;20811;-65
2021/03/02 03:26:25;;;;;;;11.60;7.43;;;;;;;5.21;58.06;97888.78;5072827;28;20515;-62
2021/03/02 03:28:52;;;;;;;13.63;7.43;;;;;;;5.21;58.36;97892.25;5066226;28;20987;-64
2021/03/02 03:31:18;;;;;;;12.23;7.43;;;;;;;5.22;58.03;97893.06;5072128;28;20472;-66
2021/03/02 03:33:44;;;;;;;9.27;6.80;;;;;;;5.18;57.98;97895.03;5072857;28;20511;-66
2021/03/02 03:36:11;;;;;;;13.20;8.23;;;;;;;5.18;57.90;97896.78;5073052;28;20532;-67
2021/03/02 03:38:37;;;;;;;12.00;7.60;;;;;;;5.12;58.48;97887.63;5072657;28;20417;-66
2021/03/02 03:41:03;;;;;;;14.70;7.43;;;;;;;5.14;58.51;97895.34;5070149;28;20456;-64
2021/03/02 03:43:28;;;;;;;11.53;7.83;;;;;;;5.13;58.40;97891.88;5068050;28;20443;-64
2021/03/02 03:45:54;;;;;;;17.07;7.43;;;;;;;5.13;58.74;97885.88;5070479;28;20895;-65
2021/03/02 03:48:20;;;;;;;12.57;7.67;;;;;;;5.12;58.26;97892.81;5066952;28;20213;-64
2021/03/02 03:50:46;;;;;;;13.17;7.67;;;;;;;5.11;58.02;97904.16;5072344;28;20696;-66
2021/03/02 03:53:12;;;;;;;13.57;8.07;;;;;;;5.11;58.60;97901.56;5073157;28;20273;-62
2021/03/02 03:55:40;;;;;;;14.40;8.57;;;;;;;5.09;58.58;97903.44;5055744;28;20424;-63
2021/03/02 03:58:11;;;;;;;12.80;7.63;;;;;;;5.10;58.70;97899.91;5071771;28;20421;-67
2021/03/02 04:00:38;;;;;;;15.70;8.53;;;;;;;5.13;58.33;97911.88;5067423;28;20424;-64
2021/03/02 04:03:04;;;;;;;13.93;8.17;;;;;;;5.13;58.36;97911.88;5072182;28;20475;-67
2021/03/02 04:05:30;;;;;;;15.50;7.73;;;;;;;5.14;58.63;97898.75;5071665;28;20474;-65
2021/03/02 04:07:56;;;;;;;13.60;7.67;;;;;;;5.13;58.45;97897.09;5072429;28;20428;-65
2021/03/02 04:10:22;;;;;;;11.33;7.80;;;;;;;5.14;58.16;97905.72;5058017;28;20203;-65
2021/03/02 04:12:48;;;;;;;11.80;8.50;;;;;;;5.14;58.26;97905.72;5060802;28;20450;-64
2021/03/02 04:15:17;;;;;;;13.90;8.23;;;;;;;5.14;58.22;97909.16;5069382;28;20178;-65
2021/03/02 04:17:49;;;;;;;17.90;8.77;;;;;;;5.13;58.72;97910.09;5075692;28;20353;-66
2021/03/02 04:20:15;;;;;;;13.83;7.77;;;;;;;5.15;58.79;97923.81;5056945;28;20460;-65
2021/03/02 04:22:40;;;;;;;17.00;8.60;;;;;;;5.21;58.46;97907.84;5057034;28;20425;-65
2021/03/02 04:25:07;;;;;;;17.30;9.10;;;;;;;5.23;58.93;97908.53;5053574;28;20183;-63
2021/03/02 04:27:33;;;;;;;13.93;8.83;;;;;;;5.30;58.55;97911.56;5053964;28;20218;-64
2021/03/02 04:29:59;;;;;;;17.03;9.33;;;;;;;5.34;58.77;97910.44;5057476;28;20477;-63
2021/03/02 04:32:25;;;;;;;15.30;8.80;;;;;;;5.30;58.67;97916.75;5060715;28;20414;-65
2021/03/02 04:34:50;;;;;;;12.57;7.80;;;;;;;5.28;58.71;97907.41;5064979;28;20182;-64
2021/03/02 04:37:16;;;;;;;15.70;8.30;;;;;;;5.22;58.72;97913.84;5053923;28;20681;-65
2021/03/02 04:39:42;;;;;;;15.50;8.40;;;;;;;5.06;58.61;97917.44;5052521;28;20194;-66
2021/03/02 04:42:08;;;;;;;14.20;8.73;;;;;;;5.11;58.51;97918.91;5059060;28;20547;-65
2021/03/02 04:44:33;;;;;;;19.80;10.90;;;;;;;5.05;58.92;97917.56;5067909;28;20206;-63
2021/03/02 04:46:59;;;;;;;20.10;10.13;;;;;;;4.95;58.68;97921.69;5053902;28;20441;-64
2021/03/02 04:49:24;;;;;;;20.30;10.60;;;;;;;4.91;58.68;97926.25;5054571;28;20211;-65
2021/03/02 04:51:50;;;;;;;17.93;10.83;;;;;;;4.89;59.33;97922.91;5051807;28;20207;-66
2021/03/02 04:54:16;;;;;;;18.70;10.90;;;;;;;4.88;59.34;97918.66;5050729;28;20253;-67
2021/03/02 04:56:42;;;;;;;21.00;10.40;;;;;;;4.91;59.68;97921.06;5034279;28;20969;-65
2021/03/02 04:59:08;;;;;;;21.13;11.00;;;;;;;4.94;59.57;97930.41;5060546;28;20452;-65
2021/03/02 05:01:34;;;;;;;19.73;11.63;;;;;;;4.94;59.16;97928.63;5051078;28;20633;-64
2021/03/02 05:04:00;;;;;;;18.30;9.40;;;;;;;4.92;59.14;97926.16;5052433;28;20256;-66
2021/03/02 05:06:25;;;;;;;17.43;10.30;;;;;;;4.92;59.55;97922.69;5053144;28;20568;-64
2021/03/02 05:08:51;;;;;;;21.20;11.60;;;;;;;4.95;59.85;97916.50;5052588;28;20536;-63
2021/03/02 05:11:17;;;;;;;18.10;10.70;;;;;;;4.96;59.16;97934.56;5051543;28;20199;-64
2021/03/02 05:13:43;;;;;;;17.83;10.17;;;;;;;4.97;59.56;97925.03;5051891;28;20252;-65
2021/03/02 05:16:12;;;;;;;18.30;10.40;;;;;;;4.95;59.24;97922.50;5056141;28;20935;-65
2021/03/02 05:18:39;;;;;;;17.30;10.37;;;;;;;4.94;59.16;97920.84;5031544;28;20197;-64
2021/03/02 05:21:05;;;;;;;16.20;10.30;;;;;;;4.92;58.86;97917.50;5065693;28;20783;-64
2021/03/02 05:23:30;;;;;;;18.63;9.80;;;;;;;4.91;59.29;97921.06;5052346;28;20420;-64
2021/03/02 05:25:56;;;;;;;18.00;11.90;;;;;;;4.89;59.50;97917.72;5043769;28;20198;-66
2021/03/02 05:28:21;;;;;;;23.93;11.60;;;;;;;4.89;59.55;97917.72;5058819;28;20229;-64
2021/03/02 05:30:47;;;;;;;16.30;10.00;;;;;;;4.88;59.65;97916.06;5051152;28;20290;-64
2021/03/02 05:33:13;;;;;;;18.40;10.83;;;;;;;4.89;59.46;97923.75;5051110;28;20281;-66
2021/03/02 05:35:38;;;;;;;19.23;11.23;;;;;;;4.88;59.94;97916.06;5052035;28;20179;-67
2021/03/02 05:38:04;;;;;;;19.07;11.37;;;;;;;4.86;59.48;97917.91;5054084;28;20213;-64
2021/03/02 05:40:30;;;;;;;21.33;11.77;;;;;;;4.81;60.54;97915.63;5064903;28;20266;-65
2021/03/02 05:42:56;;;;;;;19.00;11.20;;;;;;;4.85;59.92;97918.84;5059876;28;20256;-64
2021/03/02 05:45:22;;;;;;;25.23;12.13;;;;;;;4.88;60.30;97921.25;5051705;28;20265;-65
2021/03/02 05:47:49;;;;;;;18.60;11.20;;;;;;;4.94;60.04;97918.25;5050256;28;20532;-66
2021/03/02 05:50:15;;;;;;;18.87;12.20;;;;;;;4.91;60.57;97924.47;5063961;28;20224;-64
2021/03/02 05:52:42;;;;;;;19.60;11.57;;;;;;;4.98;60.05;97924.91;5054485;28;20432;-67
2021/03/02 05:55:08;;;;;;;18.40;11.03;;;;;;;4.99;59.84;97926.59;5050818;28;20418;-65
2021/03/02 05:57:34;;;;;;;20.90;12.07;;;;;;;4.89;60.18;97922.91;5058684;28;20449;-66
2021/03/02 06:00:00;;;;;;;20.87;11.97;;;;;;;4.98;59.53;97926.69;5063499;28;20498;-66
2021/03/02 06:02:26;;;;;;;23.87;12.67;;;;;;;4.96;59.97;97924.19;5064160;28;20806;-65
2021/03/02 06:04:51;;;;;;;22.73;12.43;;;;;;;5.02;59.40;97929.00;5051467;28;20425;-65
2021/03/02 06:07:17;;;;;;;17.93;12.00;;;;;;;5.01;59.64;97926.47;5051026;28;20679;-65
2021/03/02 06:09:44;;;;;;;21.57;13.10;;;;;;;4.96;59.59;97926.78;5051183;28;20182;-65
2021/03/02 06:12:10;;;;;;;19.93;11.60;;;;;;;4.98;59.87;97926.69;5042143;28;20214;-64
2021/03/02 06:14:36;;;;;;;27.67;13.33;;;;;;;4.98;59.35;97935.31;5050933;28;20512;-64
2021/03/02 06:17:05;;;;;;;25.03;12.60;;;;;;;5.04;59.72;97931.47;5048905;28;20441;-64
2021/03/02 06:19:38;;;;;;;21.80;12.50;;;;;;;5.02;59.10;97928.13;5050705;28;20274;-65
2021/03/02 06:22:04;;;;;;;22.37;12.47;;;;;;;5.00;59.02;97933.44;5058465;28;20437;-65
2021/03/02 06:24:38;;;;;;;22.70;13.07;;;;;;;4.97;59.79;97933.63;5051255;28;20924;-63
2021/03/02 06:27:09;;;;;;;21.50;13.10;;;;;;;5.02;59.72;97933.34;5059070;28;20218;-65
2021/03/02 06:29:35;;;;;;;22.97;13.10;;;;;;;4.82;59.66;97934.63;5049941;28;20433;-66
2021/03/02 06:32:01;;;;;;;24.13;13.60;;;;;;;5.04;59.04;97937.50;5069907;28;20456;-64
2021/03/02 06:34:26;;;;;;;24.97;13.63;;;;;;;5.10;58.70;97941.50;5054473;28;20427;-64
2021/03/02 06:36:54;;;;;;;23.63;13.23;;;;;;;5.17;59.10;97941.91;5074836;28;20722;-65
2021/03/02 06:39:28;;;;;;;27.13;13.87;;;;;;;5.15;58.46;97938.59;5074838;28;20186;-68
2021/03/02 06:42:20;;;;;;;21.43;12.93;;;;;;;5.29;58.44;97948.06;5048823;28;20514;-68
2021/03/02 06:44:53;;;;;;;20.00;13.17;;;;;;;5.35;58.79;97951.09;5074456;28;20444;-66
2021/03/02 06:47:42;;;;;;;24.47;13.70;;;;;;;5.46;58.14;97947.81;5075524;28;20459;-66
2021/03/02 06:50:11;;;;;;;20.40;12.77;;;;;;;5.57;58.12;97954.03;5070886;28;20911;-67
2021/03/02 06:52:42;;;;;;;33.43;14.30;;;;;;;5.60;57.66;97957.28;5072521;28;20525;-66
2021/03/02 06:55:28;;;;;;;21.77;13.70;;;;;;;5.65;57.93;97957.81;5071689;28;20425;-66
2021/03/02 06:58:16;;;;;;;22.27;13.63;;;;;;;5.72;57.27;97965.19;5070504;28;20912;-65
2021/03/02 07:00:54;;;;;;;20.77;12.00;;;;;;;5.85;57.18;97960.81;5060157;28;20963;-67
2021/03/02 07:03:31;;;;;;;23.23;12.80;;;;;;;5.99;56.89;97963.34;5058139;28;20436;-66
2021/03/02 07:06:03;;;;;;;20.03;11.80;;;;;;;6.17;56.37;97963.03;5062334;28;20944;-66
2021/03/02 07:08:29;;;;;;;21.73;13.50;;;;;;;6.25;56.11;97960.72;5063935;28;20438;-67
2021/03/02 07:10:54;;;;;;;22.33;13.73;;;;;;;6.26;55.96;97967.59;5069196;28;20468;-65
2021/03/02 07:13:21;;;;;;;20.90;12.17;;;;;;;6.35;55.72;97970.50;5073617;28;20923;-69
2021/03/02 07:15:49;;;;;;;26.50;14.17;;;;;;;6.50;55.72;97969.44;5072360;28;20247;-64
2021/03/02 07:18:16;;;;;;;20.67;13.13;;;;;;;6.66;55.30;97970.97;5075240;28;20440;-67
2021/03/02 07:20:48;;;;;;;27.37;13.47;;;;;;;6.75;54.96;97973.72;5072609;28;20421;-66
2021/03/02 07:23:19;;;;;;;21.10;12.20;;;;;;;6.87;54.38;97977.22;5057318;28;20432;-63
2021/03/02 07:25:46;;;;;;;25.30;13.43;;;;;;;6.81;54.26;97977.66;5074452;28;20459;-66
2021/03/02 07:28:13;;;;;;;20.40;12.70;;;;;;;6.88;54.08;97983.25;5073300;28;20474;-66
2021/03/02 07:30:39;;;;;;;25.40;15.20;;;;;;;6.96;54.33;97982.72;5071583;28;20491;-66
2021/03/02 07:33:05;;;;;;;18.60;12.27;;;;;;;7.06;54.19;97984.56;5065604;28;20425;-66
2021/03/02 07:35:32;;;;;;;20.70;13.67;;;;;;;7.05;53.65;97989.91;5056227;28;21092;-67
2021/03/02 07:38:22;;;;;;;24.83;13.10;;;;;;;7.26;53.23;97997.91;5074732;28;20490;-66
2021/03/02 07:40:53;;;;;;;23.90;13.97;;;;;;;7.33;53.33;97993.94;5073319;28;20431;-66
2021/03/02 07:43:29;;;;;;;23.43;13.50;;;;;;;7.44;52.90;97990.50;5067540;28;20440;-65
2021/03/02 07:45:55;;;;;;;26.53;14.27;;;;;;;7.35;53.47;97988.59;5073942;28;20438;-66
2021/03/02 07:48:39;;;;;;;22.40;14.37;;;;;;;7.55;52.74;97997.56;5065346;28;20781;-67
2021/03/02 07:51:24;;;;;;;24.00;12.87;;;;;;;7.79;52.08;97992.28;5072239;28;20468;-68
2021/03/02 07:53:51;;;;;;;24.33;13.70;;;;;;;7.91;51.78;97987.09;5074462;28;20425;-67
2021/03/02 07:56:23;;;;;;;23.83;13.87;;;;;;;7.77;51.82;97991.56;5069612;28;20441;-67
2021/03/02 07:59:04;;;;;;;21.43;13.90;;;;;;;7.81;52.61;97987.75;5062058;28;20426;-66
2021/03/02 08:01:29;;;;;;;25.20;14.03;;;;;;;8.02;51.84;97994.09;5070518;28;20409;-65
2021/03/02 08:04:13;;;;;;;22.00;14.67;;;;;;;8.18;51.74;97997.19;5074269;28;20524;-66
2021/03/02 08:06:39;;;;;;;21.17;13.50;;;;;;;8.19;51.47;97996.25;5072995;28;20236;-65
2021/03/02 08:09:27;;;;;;;31.93;14.60;;;;;;;7.94;51.33;97995.50;5071331;28;20421;-65
2021/03/02 08:12:24;;;;;;;27.50;16.00;;;;;;;8.13;51.13;97991.47;5073030;28;20217;-66
2021/03/02 08:14:50;;;;;;;24.30;13.70;;;;;;;8.52;50.32;97999.03;5075130;28;20429;-67
2021/03/02 08:17:19;;;;;;;22.60;14.63;;;;;;;8.46;50.42;97998.50;5076550;28;20459;-66
2021/03/02 08:19:48;;;;;;;27.10;14.60;;;;;;;8.64;49.62;98000.66;5074417;28;20182;-65
2021/03/02 08:22:16;;;;;;;22.83;14.67;;;;;;;8.81;49.60;97998.50;5072364;28;20508;-64
2021/03/02 08:24:53;;;;;;;25.10;15.00;;;;;;;8.81;49.78;98003.75;5068827;28;20465;-66
2021/03/02 08:27:37;;;;;;;27.57;15.30;;;;;;;9.01;49.70;98002.97;5056548;28;20494;-69
2021/03/02 08:30:10;;;;;;;24.47;14.20;;;;;;;9.07;49.70;97997.25;5052245;28;20432;-66
2021/03/02 08:32:37;;;;;;;22.37;13.00;;;;;;;9.45;48.88;97999.50;5071264;28;20839;-65
2021/03/02 08:35:08;;;;;;;22.40;14.50;;;;;;;9.37;48.58;98006.19;5071975;28;20429;-65
2021/03/02 08:37:41;;;;;;;26.53;13.90;;;;;;;9.72;48.17;98017.34;5073363;28;20476;-65
2021/03/02 08:40:09;;;;;;;19.27;13.10;;;;;;;9.78;47.25;98011.56;5073292;28;20444;-66
2021/03/02 08:42:34;;;;;;;22.40;13.30;;;;;;;9.85;48.04;98006.66;5063452;28;20425;-65
2021/03/02 08:45:08;;;;;;;23.80;13.80;;;;;;;10.23;47.22;98005.22;5077925;28;21180;-67
2021/03/02 08:47:35;;;;;;;20.03;13.70;;;;;;;10.45;46.31;98009.50;5075043;28;20217;-66
2021/03/02 08:50:03;;;;;;;27.47;14.60;;;;;;;10.52;46.70;98008.97;5073512;28;20543;-62
2021/03/02 08:52:39;;;;;;;26.43;14.40;;;;;;;10.59;46.03;98005.66;5073076;28;20448;-65
2021/03/02 08:55:05;;;;;;;19.93;13.20;;;;;;;10.79;45.77;98012.78;5073837;28;20424;-67
2021/03/02 08:57:44;;;;;;;20.10;13.80;;;;;;;10.90;45.79;98010.03;5074056;28;20449;-66
2021/03/02 09:00:15;;;;;;;21.37;13.23;;;;;;;11.04;45.30;98011.47;5060516;28;20472;-67
2021/03/02 09:02:44;;;;;;;27.00;14.10;;;;;;;11.16;44.87;98007.75;5078583;28;20428;-66
2021/03/02 09:05:19;;;;;;;18.90;12.90;;;;;;;11.06;45.13;98001.66;5057124;28;20454;-67
2021/03/02 09:08:06;;;;;;;20.93;14.30;;;;;;;10.96;45.68;98006.06;5071775;28;20451;-68
2021/03/02 09:10:31;;;;;;;21.30;13.43;;;;;;;10.46;46.90;98007.69;5076923;28;20453;-66
2021/03/02 09:12:57;;;;;;;25.83;14.00;;;;;;;11.06;45.90;98002.47;5083569;28;20486;-68
2021/03/02 09:15:39;;;;;;;20.47;13.40;;;;;;;11.55;44.64;98008.72;5071137;28;20430;-66
2021/03/02 09:18:13;;;;;;;20.30;13.10;;;;;;;11.66;44.47;98008.59;5063742;28;20356;-64
2021/03/02 09:20:39;;;;;;;22.93;13.83;;;;;;;11.63;44.64;98006.22;5070882;28;20427;-64
2021/03/02 09:23:05;;;;;;;20.70;13.17;;;;;;;11.90;43.91;98009.94;5071545;28;20478;-65
2021/03/02 09:25:37;;;;;;;24.97;14.20;;;;;;;12.04;43.92;98012.16;5067932;28;20679;-65
2021/03/02 09:28:19;;;;;;;23.50;13.43;;;;;;;12.14;43.89;98004.25;5055231;28;20937;-63
2021/03/02 09:30:45;;;;;;;21.73;14.20;;;;;;;12.17;43.56;98017.09;5074099;28;20464;-66
2021/03/02 09:33:14;;;;;;;22.27;13.60;;;;;;;11.84;44.14;98019.22;5070405;28;20515;-62
2021/03/02 09:35:43;;;;;;;24.10;13.43;;;;;;;12.27;43.64;98017.06;5053390;28;20428;-67
2021/03/02 09:38:27;;;;;;;22.60;13.90;;;;;;;12.65;42.79;98019.72;5054404;28;20502;-65
2021/03/02 09:40:52;;;;;;;21.77;14.43;;;;;;;12.49;43.57;98020.31;5069870;28;20443;-66
2021/03/02 09:43:18;;;;;;;22.13;14.37;;;;;;;12.65;42.70;98012.63;5055559;28;20512;-66
2021/03/02 09:45:53;;;;;;;20.63;13.67;;;;;;;12.26;43.70;98020.66;5062378;28;20186;-66
2021/03/02 09:48:19;;;;;;;23.03;13.57;;;;;;;12.44;43.69;98018.97;5071462;28;20931;-67
2021/03/02 09:50:45;;;;;;;25.30;14.20;;;;;;;12.53;43.62;98014.63;5062326;28;20515;-65
2021/03/02 09:53:15;;;;;;;35.73;13.70;;;;;;;12.49;43.73;98015.88;5071246;28;20433;-66
2021/03/02 09:55:42;;;;;;;24.47;15.80;;;;;;;12.29;43.94;98023.00;5072021;28;20188;-67
2021/03/02 09:58:13;;;;;;;28.77;15.23;;;;;;;12.10;45.03;98022.09;5070929;28;20482;-67
2021/03/02 10:00:44;;;;;;;29.50;14.93;;;;;;;12.28;44.53;98014.31;5067451;28;20420;-66
2021/03/02 10:03:26;;;;;;;19.73;14.10;;;;;;;12.50;44.08;98019.34;5054422;28;20420;-66
2021/03/02 10:05:51;;;;;;;24.83;14.87;;;;;;;12.50;43.96;98022.81;5071362;28;20428;-66
2021/03/02 10:08:18;;;;;;;29.20;14.30;;;;;;;12.74;43.32;98022.25;5053637;28;20432;-64
2021/03/02 10:10:44;;;;;;;26.70;14.80;;;;;;;12.23;44.79;98020.94;5070856;28;20777;-65
2021/03/02 10:13:09;;;;;;;28.70;15.60;;;;;;;12.57;44.51;98013.34;5070799;28;20538;-66
2021/03/02 10:15:36;;;;;;;29.37;14.90;;;;;;;12.90;43.60;98011.13;5070585;28;20931;-66
2021/03/02 10:18:21;;;;;;;21.90;14.87;;;;;;;12.49;44.07;98012.41;5071394;28;20185;-66
2021/03/02 10:21:27;;;;;;;18.33;13.17;;;;;;;13.30;42.65;98019.59;5062112;28;20491;-66
2021/03/02 10:23:58;;;;;;;24.63;15.13;;;;;;;13.27;42.74;98014.63;5067004;28;20430;-65
2021/03/02 10:26:37;;;;;;;26.93;15.13;;;;;;;13.27;42.75;98019.06;5071216;28;20441;-65
2021/03/02 10:29:08;;;;;;;27.00;13.70;;;;;;;13.61;42.13;98016.59;5037587;28;20515;-65
2021/03/02 10:31:35;;;;;;;21.30;14.47;;;;;;;13.61;42.12;98023.69;5068268;28;20468;-66
2021/03/02 10:34:02;;;;;;;21.63;14.33;;;;;;;14.19;40.74;98019.66;5037139;28;20440;-64
2021/03/02 10:36:30;;;;;;;23.53;14.43;;;;;;;13.86;41.60;98022.06;5071872;28;20436;-66
2021/03/02 10:38:57;;;;;;;29.53;15.10;;;;;;;13.71;41.87;98020.97;5069401;28;20435;-67
2021/03/02 10:41:25;;;;;;;21.20;13.60;;;;;;;14.26;40.72;98015.41;5065142;28;20426;-66
2021/03/02 10:43:52;;;;;;;19.93;14.27;;;;;;;14.23;40.64;98015.75;5068918;28;20491;-65
2021/03/02 10:46:18;;;;;;;23.60;14.17;;;;;;;14.57;40.26;98016.72;5073416;28;20517;-66
2021/03/02 10:48:45;;;;;;;20.87;14.13;;;;;;;14.38;40.29;98015.13;5074276;28;20507;-68
2021/03/02 10:51:11;;;;;;;26.50;14.77;;;;;;;14.51;39.86;98020.81;5073369;28;20535;-68
2021/03/02 10:53:37;;;;;;;27.80;15.10;;;;;;;14.45;40.63;98018.81;5074777;28;20861;-67
2021/03/02 10:56:02;;;;;;;24.37;15.43;;;;;;;14.49;40.44;98020.13;5074854;28;20966;-68
2021/03/02 10:58:28;;;;;;;25.13;14.87;;;;;;;14.55;40.41;98014.25;5072933;28;20542;-65
2021/03/02 11:00:55;;;;;;;28.13;14.70;;;;;;;14.52;40.83;98014.56;5071682;28;20221;-65
2021/03/02 11:03:22;;;;;;;26.27;14.27;;;;;;;14.68;40.08;98018.28;5074095;28;20684;-67
2021/03/02 11:05:48;;;;;;;18.90;13.20;;;;;;;14.74;39.89;98020.31;5075636;28;20417;-66
2021/03/02 11:08:13;;;;;;;24.10;15.33;;;;;;;15.22;39.08;98019.78;5075205;28;20462;-67
2021/03/02 11:10:39;;;;;;;24.17;14.30;;;;;;;15.20;38.83;98012.00;5073938;28;20215;-65
2021/03/02 11:13:05;;;;;;;26.77;15.33;;;;;;;15.20;38.97;98004.91;5074357;28;20185;-66
2021/03/02 11:15:30;;;;;;;22.87;14.07;;;;;;;15.47;38.32;98010.91;5071454;28;20186;-66
2021/03/02 11:17:56;;;;;;;18.50;13.63;;;;;;;15.72;37.59;98008.25;5069915;28;20206;-67
2021/03/02 11:20:22;;;;;;;20.70;14.10;;;;;;;15.82;37.30;98000.16;5074154;28;20417;-65
2021/03/02 11:22:47;;;;;;;23.33;14.10;;;;;;;15.71;37.58;98003.97;5073150;28;20194;-65
2021/03/02 11:25:17;;;;;;;23.23;14.27;;;;;;;15.57;38.06;98007.25;5069528;28;20209;-66
2021/03/02 11:27:45;;;;;;;22.43;12.90;;;;;;;15.81;37.52;97999.34;5074145;28;20202;-67
2021/03/02 11:30:13;;;;;;;25.60;14.50;;;;;;;15.94;37.45;98000.66;5062040;28;20439;-66
2021/03/02 11:32:40;;;;;;;24.67;14.50;;;;;;;16.34;36.08;97998.94;5072073;28;20783;-67
2021/03/02 11:35:06;;;;;;;23.60;14.40;;;;;;;16.43;35.80;97989.97;5072422;28;20904;-65